sensor_id;sensor_type;location;lat;lon;timestamp;pressure;altitude;pressure_sealevel;temperature;humidity
72124;BME280;59998;37.126;-8.538;2022-09-09T00:01:52;101613.8;;;24.2;64.1
72124;BME280;59998;37.126;-8.538;2022-09-09T00:06:46;101612.6;;;24.1;64.4
72124;BME280;59998;37.126;-8.538;2022-09-09T00:11:41;101613.8;;;24.2;64.6
72124;BME280;59998;37.126;-8.538;2022-09-09T00:16:32;101603.7;;;24.2;64.2
72124;BME280;59998;37.126;-8.538;2022-09-09T00:21:23;101599.4;;;24.3;64.3
72124;BME280;59998;37.126;-8.538;2022-09-09T00:26:16;101595.0;;;24.2;64.2
72124;BME280;59998;37.126;-8.538;2022-09-09T00:31:12;101587.9;;;24.2;64.4
72124;BME280;59998;37.126;-8.538;2022-09-09T00:35:59;101588.7;;;24.1;64.5
72124;BME280;59998;37.126;-8.538;2022-09-09T00:40:50;101588.2;;;24.1;64.4
72124;BME280;59998;37.126;-8.538;2022-09-09T00:50:53;101588.5;;;23.9;65.2
72124;BME280;59998;37.126;-8.538;2022-09-09T00:55:46;101583.3;;;23.9;65.4
72124;BME280;59998;37.126;-8.538;2022-09-09T01:00:42;101580.9;;;23.8;65.6
72124;BME280;59998;37.126;-8.538;2022-09-09T01:05:35;101588.0;;;23.9;65.4
72124;BME280;59998;37.126;-8.538;2022-09-09T01:10:29;101585.7;;;23.9;65.0
72124;BME280;59998;37.126;-8.538;2022-09-09T01:15:21;101582.6;;;24.0;64.9
72124;BME280;59998;37.126;-8.538;2022-09-09T01:20:13;101582.6;;;24.0;64.6
72124;BME280;59998;37.126;-8.538;2022-09-09T01:25:15;101579.4;;;23.9;64.8
72124;BME280;59998;37.126;-8.538;2022-09-09T01:30:04;101565.7;;;23.9;64.4
72124;BME280;59998;37.126;-8.538;2022-09-09T01:34:54;101573.5;;;23.9;64.6
72124;BME280;59998;37.126;-8.538;2022-09-09T01:39:42;101559.0;;;23.9;64.7
72124;BME280;59998;37.126;-8.538;2022-09-09T01:44:30;101548.0;;;23.9;64.7
72124;BME280;59998;37.126;-8.538;2022-09-09T01:49:20;101552.3;;;23.9;64.2
72124;BME280;59998;37.126;-8.538;2022-09-09T01:54:06;101555.3;;;23.7;65.1
72124;BME280;59998;37.126;-8.538;2022-09-09T01:59:07;101546.7;;;23.8;64.6
72124;BME280;59998;37.126;-8.538;2022-09-09T02:03:57;101544.8;;;23.8;64.7
72124;BME280;59998;37.126;-8.538;2022-09-09T02:08:49;101545.6;;;23.9;64.7
72124;BME280;59998;37.126;-8.538;2022-09-09T02:13:37;101550.4;;;23.9;64.5
72124;BME280;59998;37.126;-8.538;2022-09-09T02:18:26;101546.9;;;23.9;64.5
72124;BME280;59998;37.126;-8.538;2022-09-09T02:23:15;101543.0;;;23.9;64.6
72124;BME280;59998;37.126;-8.538;2022-09-09T02:28:06;101541.0;;;23.9;64.7
72124;BME280;59998;37.126;-8.538;2022-09-09T02:32:54;101535.4;;;23.8;64.3
72124;BME280;59998;37.126;-8.538;2022-09-09T02:37:43;101542.7;;;23.7;64.6
72124;BME280;59998;37.126;-8.538;2022-09-09T02:42:31;101543.1;;;23.7;64.9
72124;BME280;59998;37.126;-8.538;2022-09-09T02:47:29;101552.9;;;23.7;64.8
72124;BME280;59998;37.126;-8.538;2022-09-09T02:52:19;101558.7;;;23.6;64.9
72124;BME280;59998;37.126;-8.538;2022-09-09T02:57:10;101557.1;;;23.6;65.2
72124;BME280;59998;37.126;-8.538;2022-09-09T03:01:57;101556.0;;;23.6;65.3
72124;BME280;59998;37.126;-8.538;2022-09-09T03:06:43;101548.5;;;23.6;65.5
72124;BME280;59998;37.126;-8.538;2022-09-09T03:11:29;101546.1;;;23.6;66.1
72124;BME280;59998;37.126;-8.538;2022-09-09T03:16:15;101544.2;;;23.6;66.0
72124;BME280;59998;37.126;-8.538;2022-09-09T03:21:01;101548.5;;;23.6;65.7
72124;BME280;59998;37.126;-8.538;2022-09-09T03:25:50;101546.9;;;23.5;65.5
72124;BME280;59998;37.126;-8.538;2022-09-09T03:30:36;101554.2;;;23.4;67.3
72124;BME280;59998;37.126;-8.538;2022-09-09T03:35:23;101543.5;;;23.4;66.5
72124;BME280;59998;37.126;-8.538;2022-09-09T03:40:10;101556.2;;;23.5;66.1
72124;BME280;59998;37.126;-8.538;2022-09-09T03:44:56;101551.0;;;23.5;66.3
72124;BME280;59998;37.126;-8.538;2022-09-09T03:49:42;101563.4;;;23.3;67.5
72124;BME280;59998;37.126;-8.538;2022-09-09T03:54:29;101564.9;;;23.3;67.9
72124;BME280;59998;37.126;-8.538;2022-09-09T03:59:15;101558.2;;;23.2;67.9
72124;BME280;59998;37.126;-8.538;2022-09-09T04:04:02;101548.5;;;23.3;67.6
72124;BME280;59998;37.126;-8.538;2022-09-09T04:08:48;101551.6;;;23.2;67.0
72124;BME280;59998;37.126;-8.538;2022-09-09T04:13:35;101544.8;;;23.2;66.8
72124;BME280;59998;37.126;-8.538;2022-09-09T04:18:29;101546.0;;;23.1;66.6
72124;BME280;59998;37.126;-8.538;2022-09-09T04:23:16;101552.6;;;23.1;66.6
72124;BME280;59998;37.126;-8.538;2022-09-09T04:28:03;101538.4;;;23.1;66.6
72124;BME280;59998;37.126;-8.538;2022-09-09T04:32:49;101545.8;;;23.0;66.6
72124;BME280;59998;37.126;-8.538;2022-09-09T04:37:35;101548.2;;;23.0;67.0
72124;BME280;59998;37.126;-8.538;2022-09-09T04:42:22;101548.6;;;23.1;66.9
72124;BME280;59998;37.126;-8.538;2022-09-09T04:47:11;101546.3;;;23.1;67.0
72124;BME280;59998;37.126;-8.538;2022-09-09T04:51:57;101550.6;;;23.1;67.1
72124;BME280;59998;37.126;-8.538;2022-09-09T04:56:43;101557.2;;;23.1;67.2
72124;BME280;59998;37.126;-8.538;2022-09-09T05:01:29;101554.8;;;23.0;67.6
72124;BME280;59998;37.126;-8.538;2022-09-09T05:06:17;101548.9;;;23.0;67.7
72124;BME280;59998;37.126;-8.538;2022-09-09T05:11:03;101548.5;;;23.0;68.1
72124;BME280;59998;37.126;-8.538;2022-09-09T05:15:53;101548.5;;;23.0;68.7
72124;BME280;59998;37.126;-8.538;2022-09-09T05:20:40;101550.8;;;22.9;68.9
72124;BME280;59998;37.126;-8.538;2022-09-09T05:25:28;101555.1;;;23.0;68.9
72124;BME280;59998;37.126;-8.538;2022-09-09T05:30:15;101542.5;;;22.9;69.2
72124;BME280;59998;37.126;-8.538;2022-09-09T05:35:04;101552.8;;;22.9;69.4
72124;BME280;59998;37.126;-8.538;2022-09-09T05:39:50;101545.2;;;22.9;69.4
72124;BME280;59998;37.126;-8.538;2022-09-09T05:44:36;101542.1;;;22.9;69.8
72124;BME280;59998;37.126;-8.538;2022-09-09T05:49:25;101540.1;;;22.9;70.0
72124;BME280;59998;37.126;-8.538;2022-09-09T05:54:12;101553.8;;;22.9;70.2
72124;BME280;59998;37.126;-8.538;2022-09-09T05:58:58;101554.2;;;22.8;70.7
72124;BME280;59998;37.126;-8.538;2022-09-09T06:03:46;101564.0;;;22.9;70.9
72124;BME280;59998;37.126;-8.538;2022-09-09T06:08:33;101573.0;;;22.9;71.0
72124;BME280;59998;37.126;-8.538;2022-09-09T06:13:20;101573.1;;;22.8;70.9
72124;BME280;59998;37.126;-8.538;2022-09-09T06:18:05;101573.8;;;22.9;71.2
72124;BME280;59998;37.126;-8.538;2022-09-09T06:22:52;101576.2;;;22.9;70.9
72124;BME280;59998;37.126;-8.538;2022-09-09T06:27:39;101583.3;;;22.9;71.1
72124;BME280;59998;37.126;-8.538;2022-09-09T06:32:25;101580.2;;;22.9;70.8
72124;BME280;59998;37.126;-8.538;2022-09-09T06:37:11;101587.6;;;23.0;70.7
72124;BME280;59998;37.126;-8.538;2022-09-09T06:41:57;101583.4;;;23.0;70.7
72124;BME280;59998;37.126;-8.538;2022-09-09T06:46:44;101592.8;;;23.0;70.3
72124;BME280;59998;37.126;-8.538;2022-09-09T06:51:32;101605.4;;;23.1;70.0
72124;BME280;59998;37.126;-8.538;2022-09-09T06:56:21;101608.9;;;23.1;69.9
72124;BME280;59998;37.126;-8.538;2022-09-09T07:01:08;101616.3;;;23.1;70.4
72124;BME280;59998;37.126;-8.538;2022-09-09T07:05:57;101621.1;;;23.1;71.2
72124;BME280;59998;37.126;-8.538;2022-09-09T07:10:44;101616.3;;;23.1;71.2
72124;BME280;59998;37.126;-8.538;2022-09-09T07:15:32;101635.6;;;23.1;71.9
72124;BME280;59998;37.126;-8.538;2022-09-09T07:20:19;101627.7;;;23.1;72.3
72124;BME280;59998;37.126;-8.538;2022-09-09T07:25:05;101629.0;;;23.1;72.7
72124;BME280;59998;37.126;-8.538;2022-09-09T07:29:51;101630.6;;;23.2;72.4
72124;BME280;59998;37.126;-8.538;2022-09-09T07:34:38;101647.5;;;23.2;72.3
72124;BME280;59998;37.126;-8.538;2022-09-09T07:39:24;101644.1;;;23.3;72.0
72124;BME280;59998;37.126;-8.538;2022-09-09T07:44:13;101632.8;;;23.4;71.9
72124;BME280;59998;37.126;-8.538;2022-09-09T07:49:00;101632.5;;;23.4;72.1
72124;BME280;59998;37.126;-8.538;2022-09-09T07:53:46;101636.1;;;23.5;71.8
72124;BME280;59998;37.126;-8.538;2022-09-09T07:58:33;101637.8;;;23.6;71.2
72124;BME280;59998;37.126;-8.538;2022-09-09T08:03:20;101644.9;;;23.6;71.2
72124;BME280;59998;37.126;-8.538;2022-09-09T08:08:06;101643.8;;;23.7;70.7
72124;BME280;59998;37.126;-8.538;2022-09-09T08:12:52;101637.6;;;23.7;70.4
72124;BME280;59998;37.126;-8.538;2022-09-09T08:17:39;101654.2;;;23.8;70.2
72124;BME280;59998;37.126;-8.538;2022-09-09T08:22:25;101652.3;;;23.9;69.7
72124;BME280;59998;37.126;-8.538;2022-09-09T08:27:14;101657.5;;;24.0;69.4
72124;BME280;59998;37.126;-8.538;2022-09-09T08:32:00;101659.2;;;24.0;69.2
72124;BME280;59998;37.126;-8.538;2022-09-09T08:36:48;101654.1;;;24.1;69.3
72124;BME280;59998;37.126;-8.538;2022-09-09T08:42:15;101657.7;;;24.1;69.0
72124;BME280;59998;37.126;-8.538;2022-09-09T08:47:10;101663.2;;;24.2;69.1
72124;BME280;59998;37.126;-8.538;2022-09-09T08:52:00;101671.6;;;24.3;68.4
72124;BME280;59998;37.126;-8.538;2022-09-09T08:56:46;101677.9;;;24.3;68.2
72124;BME280;59998;37.126;-8.538;2022-09-09T09:01:56;101680.0;;;24.4;68.3
72124;BME280;59998;37.126;-8.538;2022-09-09T09:06:50;101673.0;;;24.5;67.8
72124;BME280;59998;37.126;-8.538;2022-09-09T09:11:40;101684.1;;;24.6;67.3
72124;BME280;59998;37.126;-8.538;2022-09-09T09:16:33;101690.4;;;24.7;67.0
72124;BME280;59998;37.126;-8.538;2022-09-09T09:21:29;101699.9;;;24.7;66.8
72124;BME280;59998;37.126;-8.538;2022-09-09T09:26:21;101707.0;;;24.8;66.4
72124;BME280;59998;37.126;-8.538;2022-09-09T09:31:10;101715.4;;;24.9;65.9
72124;BME280;59998;37.126;-8.538;2022-09-09T09:35:56;101713.9;;;25.0;65.2
72124;BME280;59998;37.126;-8.538;2022-09-09T09:40:50;101712.3;;;25.0;64.9
72124;BME280;59998;37.126;-8.538;2022-09-09T09:45:41;101714.3;;;25.1;64.4
72124;BME280;59998;37.126;-8.538;2022-09-09T09:50:29;101716.0;;;25.2;64.5
72124;BME280;59998;37.126;-8.538;2022-09-09T09:55:16;101719.6;;;25.3;64.3
72124;BME280;59998;37.126;-8.538;2022-09-09T10:00:04;101714.2;;;25.5;63.5
72124;BME280;59998;37.126;-8.538;2022-09-09T10:05:04;101711.2;;;25.6;63.1
72124;BME280;59998;37.126;-8.538;2022-09-09T10:09:53;101710.9;;;25.8;62.4
72124;BME280;59998;37.126;-8.538;2022-09-09T10:14:45;101701.5;;;26.0;61.6
72124;BME280;59998;37.126;-8.538;2022-09-09T10:19:35;101704.3;;;26.2;61.3
72124;BME280;59998;37.126;-8.538;2022-09-09T10:25:22;101702.4;;;26.4;60.0
72124;BME280;59998;37.126;-8.538;2022-09-09T10:30:16;101704.0;;;26.6;59.4
72124;BME280;59998;37.126;-8.538;2022-09-09T10:35:09;101701.3;;;26.9;58.6
72124;BME280;59998;37.126;-8.538;2022-09-09T10:40:05;101687.8;;;27.2;57.6
72124;BME280;59998;37.126;-8.538;2022-09-09T10:45:02;101694.1;;;27.5;56.8
72124;BME280;59998;37.126;-8.538;2022-09-09T10:50:08;101685.8;;;27.7;55.7
72124;BME280;59998;37.126;-8.538;2022-09-09T10:55:00;101683.7;;;27.9;54.8
72124;BME280;59998;37.126;-8.538;2022-09-09T10:59:51;101677.7;;;28.0;53.6
72124;BME280;59998;37.126;-8.538;2022-09-09T11:04:42;101665.0;;;28.2;53.5
72124;BME280;59998;37.126;-8.538;2022-09-09T11:09:35;101662.8;;;28.5;53.1
72124;BME280;59998;37.126;-8.538;2022-09-09T11:14:29;101662.3;;;28.7;52.9
72124;BME280;59998;37.126;-8.538;2022-09-09T11:19:21;101662.0;;;29.0;51.9
72124;BME280;59998;37.126;-8.538;2022-09-09T11:24:12;101644.1;;;29.1;50.7
72124;BME280;59998;37.126;-8.538;2022-09-09T11:29:09;101650.2;;;29.3;50.1
72124;BME280;59998;37.126;-8.538;2022-09-09T11:34:09;101635.1;;;29.4;49.5
72124;BME280;59998;37.126;-8.538;2022-09-09T11:39:10;101630.4;;;29.4;50.4
72124;BME280;59998;37.126;-8.538;2022-09-09T11:44:08;101631.1;;;28.1;53.5
72124;BME280;59998;37.126;-8.538;2022-09-09T11:49:01;101636.5;;;27.5;54.8
72124;BME280;59998;37.126;-8.538;2022-09-09T11:53:51;101624.8;;;27.1;56.3
72124;BME280;59998;37.126;-8.538;2022-09-09T11:58:41;101632.3;;;26.9;56.6
72124;BME280;59998;37.126;-8.538;2022-09-09T12:03:39;101626.4;;;26.3;58.3
72124;BME280;59998;37.126;-8.538;2022-09-09T12:08:28;101629.6;;;26.3;58.9
72124;BME280;59998;37.126;-8.538;2022-09-09T12:13:19;101618.9;;;26.1;59.1
72124;BME280;59998;37.126;-8.538;2022-09-09T12:18:07;101638.6;;;26.2;58.7
72124;BME280;59998;37.126;-8.538;2022-09-09T12:24:00;101611.4;;;26.0;59.6
72124;BME280;59998;37.126;-8.538;2022-09-09T12:28:56;101611.8;;;26.0;59.2
72124;BME280;59998;37.126;-8.538;2022-09-09T12:33:45;101616.1;;;26.0;59.4
72124;BME280;59998;37.126;-8.538;2022-09-09T12:38:34;101613.0;;;26.1;59.0
72124;BME280;59998;37.126;-8.538;2022-09-09T12:43:22;101604.3;;;26.0;58.9
72124;BME280;59998;37.126;-8.538;2022-09-09T12:48:10;101603.9;;;26.1;58.8
72124;BME280;59998;37.126;-8.538;2022-09-09T12:53:00;101604.3;;;25.9;59.3
72124;BME280;59998;37.126;-8.538;2022-09-09T12:57:48;101603.0;;;25.5;60.4
72124;BME280;59998;37.126;-8.538;2022-09-09T13:02:35;101600.5;;;25.2;61.3
72124;BME280;59998;37.126;-8.538;2022-09-09T13:07:21;101590.2;;;25.1;62.1
72124;BME280;59998;37.126;-8.538;2022-09-09T13:12:13;101599.6;;;25.0;62.5
72124;BME280;59998;37.126;-8.538;2022-09-09T13:17:01;101590.1;;;24.9;62.7
72124;BME280;59998;37.126;-8.538;2022-09-09T13:21:48;101597.6;;;25.0;62.2
72124;BME280;59998;37.126;-8.538;2022-09-09T13:26:35;101595.4;;;25.2;62.0
72124;BME280;59998;37.126;-8.538;2022-09-09T13:31:24;101574.6;;;25.4;61.3
72124;BME280;59998;37.126;-8.538;2022-09-09T13:36:12;101576.6;;;25.5;60.8
72124;BME280;59998;37.126;-8.538;2022-09-09T13:41:01;101560.2;;;25.6;60.5
72124;BME280;59998;37.126;-8.538;2022-09-09T13:45:55;101572.4;;;25.6;60.4
72124;BME280;59998;37.126;-8.538;2022-09-09T13:50:44;101557.5;;;25.8;60.0
72124;BME280;59998;37.126;-8.538;2022-09-09T13:55:36;101542.5;;;25.7;60.6
72124;BME280;59998;37.126;-8.538;2022-09-09T14:00:25;101545.2;;;25.7;61.0
72124;BME280;59998;37.126;-8.538;2022-09-09T14:05:13;101553.8;;;25.4;62.3
72124;BME280;59998;37.126;-8.538;2022-09-09T14:09:59;101530.6;;;25.5;62.5
72124;BME280;59998;37.126;-8.538;2022-09-09T14:14:46;101529.1;;;25.9;61.4
72124;BME280;59998;37.126;-8.538;2022-09-09T14:19:32;101529.9;;;26.0;62.0
72124;BME280;59998;37.126;-8.538;2022-09-09T14:24:18;101498.1;;;26.1;61.7
72124;BME280;59998;37.126;-8.538;2022-09-09T14:29:05;101494.1;;;26.1;61.6
72124;BME280;59998;37.126;-8.538;2022-09-09T14:33:51;101490.2;;;26.1;62.2
72124;BME280;59998;37.126;-8.538;2022-09-09T14:38:38;101486.2;;;26.4;60.8
72124;BME280;59998;37.126;-8.538;2022-09-09T14:43:25;101480.7;;;26.6;59.2
72124;BME280;59998;37.126;-8.538;2022-09-09T14:48:11;101476.4;;;26.6;60.4
72124;BME280;59998;37.126;-8.538;2022-09-09T14:52:57;101467.1;;;27.2;59.6
72124;BME280;59998;37.126;-8.538;2022-09-09T14:57:46;101462.4;;;27.8;57.4
72124;BME280;59998;37.126;-8.538;2022-09-09T15:02:33;101450.9;;;28.3;55.5
72124;BME280;59998;37.126;-8.538;2022-09-09T15:07:19;101441.7;;;29.1;53.1
72124;BME280;59998;37.126;-8.538;2022-09-09T15:12:06;101443.3;;;29.6;51.4
72124;BME280;59998;37.126;-8.538;2022-09-09T15:16:52;101442.5;;;29.8;50.3
72124;BME280;59998;37.126;-8.538;2022-09-09T15:21:39;101444.5;;;30.0;49.2
72124;BME280;59998;37.126;-8.538;2022-09-09T15:26:26;101436.8;;;30.2;48.9
72124;BME280;59998;37.126;-8.538;2022-09-09T15:31:15;101437.6;;;30.4;48.5
72124;BME280;59998;37.126;-8.538;2022-09-09T15:36:15;101445.2;;;30.4;48.3
72124;BME280;59998;37.126;-8.538;2022-09-09T15:41:02;101424.9;;;30.1;48.4
72124;BME280;59998;37.126;-8.538;2022-09-09T15:45:52;101426.8;;;30.2;48.1
72124;BME280;59998;37.126;-8.538;2022-09-09T15:50:42;101411.4;;;30.2;48.7
72124;BME280;59998;37.126;-8.538;2022-09-09T15:55:29;101415.8;;;30.4;47.7
72124;BME280;59998;37.126;-8.538;2022-09-09T16:00:18;101406.1;;;30.7;47.4
72124;BME280;59998;37.126;-8.538;2022-09-09T16:05:05;101398.6;;;30.5;47.6
72124;BME280;59998;37.126;-8.538;2022-09-09T16:09:52;101389.6;;;30.6;47.3
72124;BME280;59998;37.126;-8.538;2022-09-09T16:14:38;101382.1;;;30.4;48.0
72124;BME280;59998;37.126;-8.538;2022-09-09T16:19:25;101386.1;;;30.6;47.4
72124;BME280;59998;37.126;-8.538;2022-09-09T16:24:13;101380.2;;;30.7;46.8
72124;BME280;59998;37.126;-8.538;2022-09-09T16:28:58;101387.4;;;30.7;46.7
72124;BME280;59998;37.126;-8.538;2022-09-09T16:33:45;101377.7;;;30.8;46.9
72124;BME280;59998;37.126;-8.538;2022-09-09T16:38:32;101363.7;;;30.9;46.2
72124;BME280;59998;37.126;-8.538;2022-09-09T16:43:19;101359.3;;;30.9;46.6
72124;BME280;59998;37.126;-8.538;2022-09-09T16:48:05;101369.9;;;30.9;46.5
72124;BME280;59998;37.126;-8.538;2022-09-09T16:52:52;101367.6;;;30.9;46.5
72124;BME280;59998;37.126;-8.538;2022-09-09T16:57:38;101367.4;;;30.8;46.9
72124;BME280;59998;37.126;-8.538;2022-09-09T17:02:26;101362.3;;;31.1;45.9
72124;BME280;59998;37.126;-8.538;2022-09-09T17:07:12;101352.2;;;31.0;45.8
72124;BME280;59998;37.126;-8.538;2022-09-09T17:12:00;101352.5;;;30.9;46.3
72124;BME280;59998;37.126;-8.538;2022-09-09T17:16:46;101354.9;;;30.9;46.0
72124;BME280;59998;37.126;-8.538;2022-09-09T17:21:33;101357.6;;;30.9;45.8
72124;BME280;59998;37.126;-8.538;2022-09-09T17:26:21;101359.5;;;30.6;46.5
72124;BME280;59998;37.126;-8.538;2022-09-09T17:31:07;101354.6;;;30.6;46.8
72124;BME280;59998;37.126;-8.538;2022-09-09T17:35:54;101346.8;;;30.8;46.3
72124;BME280;59998;37.126;-8.538;2022-09-09T17:40:41;101343.1;;;31.0;46.0
72124;BME280;59998;37.126;-8.538;2022-09-09T17:45:28;101353.2;;;30.9;45.7
72124;BME280;59998;37.126;-8.538;2022-09-09T17:50:14;101352.9;;;30.5;46.8
72124;BME280;59998;37.126;-8.538;2022-09-09T17:55:00;101354.2;;;30.5;47.1
72124;BME280;59998;37.126;-8.538;2022-09-09T17:59:47;101339.5;;;30.9;46.2
72124;BME280;59998;37.126;-8.538;2022-09-09T18:04:33;101339.4;;;30.7;46.5
72124;BME280;59998;37.126;-8.538;2022-09-09T18:09:43;101356.3;;;30.6;46.2
72124;BME280;59998;37.126;-8.538;2022-09-09T18:14:30;101351.4;;;30.3;46.8
72124;BME280;59998;37.126;-8.538;2022-09-09T18:19:18;101349.0;;;30.3;46.8
72124;BME280;59998;37.126;-8.538;2022-09-09T18:24:06;101355.3;;;30.1;47.2
72124;BME280;59998;37.126;-8.538;2022-09-09T18:28:54;101368.3;;;29.5;48.1
72124;BME280;59998;37.126;-8.538;2022-09-09T18:33:43;101367.7;;;29.4;48.8
72124;BME280;59998;37.126;-8.538;2022-09-09T18:38:28;101360.4;;;28.7;49.8
72124;BME280;59998;37.126;-8.538;2022-09-09T18:43:17;101363.1;;;28.0;51.3
72124;BME280;59998;37.126;-8.538;2022-09-09T18:48:03;101358.9;;;27.5;52.7
72124;BME280;59998;37.126;-8.538;2022-09-09T18:52:49;101367.8;;;27.1;53.6
72124;BME280;59998;37.126;-8.538;2022-09-09T18:57:35;101381.7;;;26.9;53.9
72124;BME280;59998;37.126;-8.538;2022-09-09T19:02:21;101370.4;;;26.6;54.6
72124;BME280;59998;37.126;-8.538;2022-09-09T19:07:10;101376.0;;;26.4;55.0
72124;BME280;59998;37.126;-8.538;2022-09-09T19:11:56;101383.9;;;26.2;55.5
72124;BME280;59998;37.126;-8.538;2022-09-09T19:16:45;101383.2;;;26.0;56.1
72124;BME280;59998;37.126;-8.538;2022-09-09T19:21:33;101381.6;;;25.8;56.1
72124;BME280;59998;37.126;-8.538;2022-09-09T19:26:21;101391.9;;;25.7;56.5
72124;BME280;59998;37.126;-8.538;2022-09-09T19:31:08;101400.9;;;25.6;56.3
72124;BME280;59998;37.126;-8.538;2022-09-09T19:35:58;101408.0;;;25.6;56.3
72124;BME280;59998;37.126;-8.538;2022-09-09T19:40:44;101406.8;;;25.5;56.5
72124;BME280;59998;37.126;-8.538;2022-09-09T19:45:30;101426.8;;;25.4;56.9
72124;BME280;59998;37.126;-8.538;2022-09-09T19:50:16;101435.8;;;25.3;57.4
72124;BME280;59998;37.126;-8.538;2022-09-09T19:55:03;101438.5;;;25.1;58.3
72124;BME280;59998;37.126;-8.538;2022-09-09T19:59:49;101441.3;;;25.0;58.5
72124;BME280;59998;37.126;-8.538;2022-09-09T20:04:35;101470.3;;;24.9;59.2
72124;BME280;59998;37.126;-8.538;2022-09-09T20:09:22;101462.4;;;24.8;59.3
72124;BME280;59998;37.126;-8.538;2022-09-09T20:14:11;101469.4;;;24.8;59.3
72124;BME280;59998;37.126;-8.538;2022-09-09T20:18:58;101472.5;;;24.7;60.1
72124;BME280;59998;37.126;-8.538;2022-09-09T20:23:45;101478.8;;;24.7;60.3
72124;BME280;59998;37.126;-8.538;2022-09-09T20:28:31;101480.7;;;24.6;60.6
72124;BME280;59998;37.126;-8.538;2022-09-09T20:33:18;101480.3;;;24.6;60.5
72124;BME280;59998;37.126;-8.538;2022-09-09T20:38:04;101496.8;;;24.6;61.2
72124;BME280;59998;37.126;-8.538;2022-09-09T20:42:53;101501.5;;;24.6;60.5
72124;BME280;59998;37.126;-8.538;2022-09-09T20:47:40;101512.5;;;24.6;60.8
72124;BME280;59998;37.126;-8.538;2022-09-09T20:52:27;101503.4;;;24.5;60.7
72124;BME280;59998;37.126;-8.538;2022-09-09T20:57:13;101515.5;;;24.4;60.9
72124;BME280;59998;37.126;-8.538;2022-09-09T21:01:59;101520.7;;;24.5;60.9
72124;BME280;59998;37.126;-8.538;2022-09-09T21:06:46;101520.3;;;24.5;60.8
72124;BME280;59998;37.126;-8.538;2022-09-09T21:11:36;101521.9;;;24.5;61.0
72124;BME280;59998;37.126;-8.538;2022-09-09T21:16:24;101529.4;;;24.6;60.9
72124;BME280;59998;37.126;-8.538;2022-09-09T21:21:11;101525.4;;;24.6;61.0
72124;BME280;59998;37.126;-8.538;2022-09-09T21:25:59;101531.7;;;24.5;61.5
72124;BME280;59998;37.126;-8.538;2022-09-09T21:30:49;101538.4;;;24.5;61.5
72124;BME280;59998;37.126;-8.538;2022-09-09T21:35:37;101536.7;;;24.4;61.8
72124;BME280;59998;37.126;-8.538;2022-09-09T21:40:23;101541.4;;;24.4;61.4
72124;BME280;59998;37.126;-8.538;2022-09-09T21:45:12;101529.7;;;24.4;61.6
72124;BME280;59998;37.126;-8.538;2022-09-09T21:49:58;101535.9;;;24.4;61.6
72124;BME280;59998;37.126;-8.538;2022-09-09T21:54:45;101543.7;;;24.4;61.4
72124;BME280;59998;37.126;-8.538;2022-09-09T21:59:34;101536.3;;;24.4;61.8
72124;BME280;59998;37.126;-8.538;2022-09-09T22:04:20;101539.1;;;24.4;61.7
72124;BME280;59998;37.126;-8.538;2022-09-09T22:09:07;101539.4;;;24.4;61.5
72124;BME280;59998;37.126;-8.538;2022-09-09T22:13:53;101538.6;;;24.3;61.3
72124;BME280;59998;37.126;-8.538;2022-09-09T22:18:42;101532.3;;;24.2;60.9
72124;BME280;59998;37.126;-8.538;2022-09-09T22:23:28;101527.9;;;24.2;61.1
72124;BME280;59998;37.126;-8.538;2022-09-09T22:28:14;101519.2;;;24.1;60.8
72124;BME280;59998;37.126;-8.538;2022-09-09T22:33:01;101522.4;;;24.2;60.7
72124;BME280;59998;37.126;-8.538;2022-09-09T22:37:48;101523.6;;;24.2;60.9
72124;BME280;59998;37.126;-8.538;2022-09-09T22:42:34;101530.7;;;24.3;60.4
72124;BME280;59998;37.126;-8.538;2022-09-09T22:47:20;101521.3;;;24.3;60.1
72124;BME280;59998;37.126;-8.538;2022-09-09T22:52:07;101520.5;;;24.2;59.9
72124;BME280;59998;37.126;-8.538;2022-09-09T22:56:53;101516.2;;;24.3;59.8
72124;BME280;59998;37.126;-8.538;2022-09-09T23:01:39;101525.7;;;24.3;60.0
72124;BME280;59998;37.126;-8.538;2022-09-09T23:06:27;101516.2;;;24.3;59.7
72124;BME280;59998;37.126;-8.538;2022-09-09T23:11:12;101518.2;;;24.3;59.8
72124;BME280;59998;37.126;-8.538;2022-09-09T23:15:59;101522.2;;;24.4;59.6
72124;BME280;59998;37.126;-8.538;2022-09-09T23:20:56;101519.4;;;24.4;59.5
72124;BME280;59998;37.126;-8.538;2022-09-09T23:25:43;101523.7;;;24.4;59.2
72124;BME280;59998;37.126;-8.538;2022-09-09T23:30:29;101533.2;;;24.4;58.8
72124;BME280;59998;37.126;-8.538;2022-09-09T23:35:16;101511.1;;;24.3;59.0
72124;BME280;59998;37.126;-8.538;2022-09-09T23:40:05;101515.8;;;24.3;58.8
72124;BME280;59998;37.126;-8.538;2022-09-09T23:44:52;101523.7;;;24.3;58.5
72124;BME280;59998;37.126;-8.538;2022-09-09T23:49:39;101520.5;;;24.3;58.8
72124;BME280;59998;37.126;-8.538;2022-09-09T23:54:25;101517.1;;;24.4;58.9
72124;BME280;59998;37.126;-8.538;2022-09-09T23:59:12;101512.4;;;24.5;58.6
